Airfield :
LOGIN :

Register | Disclaimer

   EN    FR    IT 

 










Legend :    VFR   Marginal VFR   IFR   Intensive IFR   Very Intensive IFR
Visi :
Ceiling :
>= 8 km
>= 3000ft
5 to 8 km
1000 to 3000 ft
1500m to 5 km
500 to 1000 ft
800 to 1500m
200 to 500 ft
< 800m
< 200 ft
Symbols :   Thunderstorms  Fog  Heavy snow  Heavy precipitations  Wind > 20 kt
SIGMETs :     Misc.  Thunderstorms  Icing  Turbulence  Mountain Waves  Volcanic Ashes






- Airport Elevation : 1299 ft


EDTY - Adolf Würth

CURRENT METAR :
  • 131550Z 31004KT 260V360 9999 FEW047 21/11 Q1014

EXPIRED METARs :
  • 131520Z 28004KT 230V340 9999 FEW044 21/10 Q1014
  • 131450Z 30004KT 260V340 9999 FEW046 20/11 Q1014
  • 131420Z 27007KT 9999 SCT042 20/12 Q1014
  • 131350Z 29005KT 240V330 9999 FEW039 SCT047 20/11 Q1014
  • 131320Z 30004KT 270V340 9999 SCT039 20/12 Q1014
  • 131250Z 23006KT 190V290 9999 BKN039 20/11 Q1014
  • 131220Z VRB03KT 9999 SCT041 21/13 Q1014
  • 131150Z 31003KT 270V350 9999 BKN036 BKN043 18/12 Q1015
  • 131120Z 28006KT 240V310 9999 BKN035 18/10 Q1015

TAF TAF EDTY
Valid from the 13 at 15:00 until the 14 at 00:00 UTC


131400Z 1315/1324 26005KT 9999 SCT035
BECMG 1316/1318 VRB02KT



MET'MAP, your aeronautical weather chart ! - Copyright ORBIFLY December 2007 - Disclaimer

ORBIFLY MET'MAP TEAM :

Programming & Development : Alexandra Zaïnal
Original concept : Baudouin d'Aumeries
Technical & hardware support : Manuel Goepfert
Assistance : Marc-Olivier Méhu




SOURCES & CREDITS :

   NOAA